Time;durP1;ratioP1;P1;durP2;ratioP2;P2;SDS_P1;SDS_P2;PMS_P1;PMS_P2;Temp;Humidity;BMP_temperature;BMP_pressure;BME280_temperature;BME280_humidity;BME280_pressure;Samples;Min_cycle;Max_cycle;Signal;HPM_P1;HPM_P2
2019/11/04 00:00:54;;;;;;;0.8;0.8;;;;;;;9.54;100;93077.03;;;;
2019/11/04 00:01:55;;;;;;;0.8;0.8;;;;;;;9.54;100;93077.03;;;;
2019/11/04 00:02:56;;;;;;;0.8;0.8;;;;;;;9.54;100;93077.03;;;;
2019/11/04 00:03:57;;;;;;;0.8;0.8;;;;;;;9.54;100;93077.03;;;;
2019/11/04 00:04:59;;;;;;;0.8;0.8;;;;;;;9.54;100;93077.03;;;;
2019/11/04 00:06:00;;;;;;;0.8;0.8;;;;;;;9.54;100;93077.03;;;;
2019/11/04 00:07:01;;;;;;;0.8;0.8;;;;;;;9.54;100;93077.03;;;;
2019/11/04 00:08:02;;;;;;;0.7;0.7;;;;;;;9.62;100;93083.17;;;;
2019/11/04 00:09:03;;;;;;;0.7;0.7;;;;;;;9.62;100;93083.17;;;;
2019/11/04 00:10:05;;;;;;;0.7;0.7;;;;;;;9.62;100;93083.17;;;;
2019/11/04 00:11:07;;;;;;;0.7;0.7;;;;;;;9.62;100;93083.17;;;;
2019/11/04 00:12:08;;;;;;;0.7;0.7;;;;;;;9.62;100;93083.17;;;;
2019/11/04 00:13:09;;;;;;;0.7;0.7;;;;;;;9.62;100;93083.17;;;;
2019/11/04 00:14:10;;;;;;;0.7;0.7;;;;;;;9.62;100;93083.17;;;;
2019/11/04 00:15:11;;;;;;;0.7;0.7;;;;;;;9.62;100;93083.17;;;;
2019/11/04 00:16:15;;;;;;;0.7;0.7;;;;;;;9.62;100;93083.17;;;;
2019/11/04 00:17:16;;;;;;;0.7;0.7;;;;;;;9.62;100;93083.17;;;;
2019/11/04 00:18:17;;;;;;;0.8;0.8;;;;;;;9.65;100;93105.49;;;;
2019/11/04 00:19:18;;;;;;;0.8;0.8;;;;;;;9.65;100;93105.49;;;;
2019/11/04 00:20:20;;;;;;;0.8;0.8;;;;;;;9.65;100;93105.49;;;;
2019/11/04 00:21:21;;;;;;;0.8;0.8;;;;;;;9.65;100;93105.49;;;;
2019/11/04 00:22:25;;;;;;;0.8;0.8;;;;;;;9.65;100;93105.49;;;;
2019/11/04 00:23:28;;;;;;;0.8;0.8;;;;;;;9.65;100;93105.49;;;;
2019/11/04 00:25:02;;;;;;;0.8;0.8;;;;;;;9.65;100;93105.49;;;;
2019/11/04 00:26:03;;;;;;;0.8;0.8;;;;;;;9.65;100;93105.49;;;;
2019/11/04 00:27:05;;;;;;;0.8;0.8;;;;;;;9.65;100;93105.49;;;;
2019/11/04 00:28:06;;;;;;;0.8;0.8;;;;;;;9.65;100;93105.49;;;;
2019/11/04 00:29:07;;;;;;;1.1;1;;;;;;;9.46;100;93130.72;;;;
2019/11/04 00:30:08;;;;;;;1.1;1;;;;;;;9.46;100;93130.72;;;;
2019/11/04 00:31:27;;;;;;;1.1;1;;;;;;;9.46;100;93130.72;;;;
2019/11/04 00:32:28;;;;;;;1.1;1;;;;;;;9.46;100;93130.72;;;;
2019/11/04 00:33:29;;;;;;;1.1;1;;;;;;;9.46;100;93130.72;;;;
2019/11/04 00:34:30;;;;;;;1.1;1;;;;;;;9.46;100;93130.72;;;;
2019/11/04 00:35:32;;;;;;;1.1;1;;;;;;;9.46;100;93130.72;;;;
2019/11/04 00:36:33;;;;;;;1.1;1;;;;;;;9.46;100;93130.72;;;;
2019/11/04 00:37:34;;;;;;;1.1;1;;;;;;;9.46;100;93130.72;;;;
2019/11/04 00:38:35;;;;;;;1.1;1;;;;;;;9.46;100;93130.72;;;;
2019/11/04 00:39:36;;;;;;;1.9;1;;;;;;;9.38;100;93144.76;;;;
2019/11/04 00:40:37;;;;;;;1.9;1;;;;;;;9.38;100;93144.76;;;;
2019/11/04 00:41:38;;;;;;;1.9;1;;;;;;;9.38;100;93144.76;;;;
2019/11/04 00:42:39;;;;;;;1.9;1;;;;;;;9.38;100;93144.76;;;;
2019/11/04 00:43:41;;;;;;;1.9;1;;;;;;;9.38;100;93144.76;;;;
2019/11/04 00:44:42;;;;;;;1.9;1;;;;;;;9.38;100;93144.76;;;;
2019/11/04 00:45:43;;;;;;;1.9;1;;;;;;;9.38;100;93144.76;;;;
2019/11/04 00:46:44;;;;;;;1.9;1;;;;;;;9.38;100;93144.76;;;;
2019/11/04 00:47:45;;;;;;;1.9;1;;;;;;;9.38;100;93144.76;;;;
2019/11/04 00:48:46;;;;;;;1.9;1;;;;;;;9.38;100;93144.76;;;;
2019/11/04 00:49:47;;;;;;;1.8;0.7;;;;;;;9.24;100;93167.9;;;;
2019/11/04 00:50:48;;;;;;;1.8;0.7;;;;;;;9.24;100;93167.9;;;;
2019/11/04 00:51:49;;;;;;;1.8;0.7;;;;;;;9.24;100;93167.9;;;;
2019/11/04 00:52:51;;;;;;;1.8;0.7;;;;;;;9.24;100;93167.9;;;;
2019/11/04 00:53:52;;;;;;;1.8;0.7;;;;;;;9.24;100;93167.9;;;;
2019/11/04 00:54:53;;;;;;;1.8;0.7;;;;;;;9.24;100;93167.9;;;;
2019/11/04 00:55:54;;;;;;;1.8;0.7;;;;;;;9.24;100;93167.9;;;;
2019/11/04 00:56:56;;;;;;;1.8;0.7;;;;;;;9.24;100;93167.9;;;;
2019/11/04 00:57:57;;;;;;;1.8;0.7;;;;;;;9.24;100;93167.9;;;;
2019/11/04 00:58:58;;;;;;;1.8;0.7;;;;;;;9.24;100;93167.9;;;;
2019/11/04 00:59:59;;;;;;;1.8;0.7;;;;;;;9.24;100;93167.9;;;;
2019/11/04 01:01:01;;;;;;;0.8;0.7;;;;;;;9.2;100;93158.36;;;;
2019/11/04 01:02:02;;;;;;;0.8;0.7;;;;;;;9.2;100;93158.36;;;;
2019/11/04 01:03:03;;;;;;;0.8;0.7;;;;;;;9.2;100;93158.36;;;;
2019/11/04 01:04:04;;;;;;;0.8;0.7;;;;;;;9.2;100;93158.36;;;;
2019/11/04 01:05:06;;;;;;;0.8;0.7;;;;;;;9.2;100;93158.36;;;;
2019/11/04 01:06:07;;;;;;;0.8;0.7;;;;;;;9.2;100;93158.36;;;;
2019/11/04 01:07:08;;;;;;;0.8;0.7;;;;;;;9.2;100;93158.36;;;;
2019/11/04 01:08:09;;;;;;;0.8;0.7;;;;;;;9.2;100;93158.36;;;;
2019/11/04 01:09:11;;;;;;;0.8;0.7;;;;;;;9.2;100;93158.36;;;;
2019/11/04 01:10:12;;;;;;;0.8;0.7;;;;;;;9.2;100;93158.36;;;;
2019/11/04 01:11:13;;;;;;;1.15;0.6;;;;;;;9.04;100;93173.94;;;;
2019/11/04 01:12:14;;;;;;;1.15;0.6;;;;;;;9.04;100;93173.94;;;;
2019/11/04 01:13:17;;;;;;;1.15;0.6;;;;;;;9.04;100;93173.94;;;;
2019/11/04 01:14:18;;;;;;;1.15;0.6;;;;;;;9.04;100;93173.94;;;;
2019/11/04 01:15:54;;;;;;;1.15;0.6;;;;;;;9.04;100;93173.94;;;;
2019/11/04 01:17:19;;;;;;;1.15;0.6;;;;;;;9.04;100;93173.94;;;;
2019/11/04 01:18:22;;;;;;;1.15;0.6;;;;;;;9.04;100;93173.94;;;;
2019/11/04 01:19:23;;;;;;;1.15;0.6;;;;;;;9.04;100;93173.94;;;;
2019/11/04 01:20:24;;;;;;;1.15;0.6;;;;;;;9.04;100;93173.94;;;;
2019/11/04 01:21:25;;;;;;;1.15;0.6;;;;;;;9.04;100;93173.94;;;;
2019/11/04 01:22:27;;;;;;;0.6;0.6;;;;;;;8.92;100;93177.35;;;;
2019/11/04 01:23:28;;;;;;;0.6;0.6;;;;;;;8.92;100;93177.35;;;;
2019/11/04 01:24:29;;;;;;;0.6;0.6;;;;;;;8.92;100;93177.35;;;;
2019/11/04 01:25:30;;;;;;;0.6;0.6;;;;;;;8.92;100;93177.35;;;;
2019/11/04 01:26:31;;;;;;;0.6;0.6;;;;;;;8.92;100;93177.35;;;;
2019/11/04 01:27:33;;;;;;;0.6;0.6;;;;;;;8.92;100;93177.35;;;;
2019/11/04 01:28:34;;;;;;;0.6;0.6;;;;;;;8.92;100;93177.35;;;;
2019/11/04 01:29:35;;;;;;;0.6;0.6;;;;;;;8.92;100;93177.35;;;;
2019/11/04 01:30:37;;;;;;;0.6;0.6;;;;;;;8.92;100;93177.35;;;;
2019/11/04 01:31:38;;;;;;;0.6;0.6;;;;;;;8.92;100;93177.35;;;;
2019/11/04 01:32:39;;;;;;;0.6;0.6;;;;;;;8.77;100;93193.71;;;;
2019/11/04 01:33:41;;;;;;;0.6;0.6;;;;;;;8.77;100;93193.71;;;;
2019/11/04 01:34:42;;;;;;;0.6;0.6;;;;;;;8.77;100;93193.71;;;;
2019/11/04 01:35:43;;;;;;;0.6;0.6;;;;;;;8.77;100;93193.71;;;;
2019/11/04 01:36:44;;;;;;;0.6;0.6;;;;;;;8.77;100;93193.71;;;;
2019/11/04 01:37:45;;;;;;;0.6;0.6;;;;;;;8.77;100;93193.71;;;;
2019/11/04 01:38:47;;;;;;;0.6;0.6;;;;;;;8.77;100;93193.71;;;;
2019/11/04 01:39:48;;;;;;;0.6;0.6;;;;;;;8.77;100;93193.71;;;;
2019/11/04 01:40:49;;;;;;;0.6;0.6;;;;;;;8.77;100;93193.71;;;;
2019/11/04 01:41:50;;;;;;;0.6;0.6;;;;;;;8.77;100;93193.71;;;;
2019/11/04 01:42:51;;;;;;;0.7;0.7;;;;;;;8.64;100;93213.94;;;;
2019/11/04 01:43:53;;;;;;;0.7;0.7;;;;;;;8.64;100;93213.94;;;;
2019/11/04 01:44:54;;;;;;;0.7;0.7;;;;;;;8.64;100;93213.94;;;;
2019/11/04 01:45:55;;;;;;;0.7;0.7;;;;;;;8.64;100;93213.94;;;;
2019/11/04 01:46:56;;;;;;;0.7;0.7;;;;;;;8.64;100;93213.94;;;;
2019/11/04 01:47:57;;;;;;;0.7;0.7;;;;;;;8.64;100;93213.94;;;;
2019/11/04 01:48:58;;;;;;;0.7;0.7;;;;;;;8.64;100;93213.94;;;;
2019/11/04 01:50:00;;;;;;;0.7;0.7;;;;;;;8.64;100;93213.94;;;;
2019/11/04 01:51:01;;;;;;;0.7;0.7;;;;;;;8.64;100;93213.94;;;;
2019/11/04 01:52:02;;;;;;;0.7;0.7;;;;;;;8.64;100;93213.94;;;;
2019/11/04 01:53:04;;;;;;;0.7;0.7;;;;;;;8.64;100;93213.94;;;;
2019/11/04 01:54:05;;;;;;;0.7;0.7;;;;;;;8.39;100;93226.11;;;;
2019/11/04 01:55:06;;;;;;;0.7;0.7;;;;;;;8.39;100;93226.11;;;;
2019/11/04 01:56:07;;;;;;;0.7;0.7;;;;;;;8.39;100;93226.11;;;;
2019/11/04 01:57:08;;;;;;;0.7;0.7;;;;;;;8.39;100;93226.11;;;;
2019/11/04 01:58:09;;;;;;;0.7;0.7;;;;;;;8.39;100;93226.11;;;;
2019/11/04 01:59:11;;;;;;;0.7;0.7;;;;;;;8.39;100;93226.11;;;;
2019/11/04 02:00:12;;;;;;;0.7;0.7;;;;;;;8.39;100;93226.11;;;;
2019/11/04 02:01:13;;;;;;;0.7;0.7;;;;;;;8.39;100;93226.11;;;;
2019/11/04 02:02:14;;;;;;;0.7;0.7;;;;;;;8.39;100;93226.11;;;;
2019/11/04 02:03:15;;;;;;;0.7;0.7;;;;;;;8.39;100;93226.11;;;;
2019/11/04 02:04:17;;;;;;;0.5;0.5;;;;;;;8.14;100;93223.85;;;;
2019/11/04 02:05:18;;;;;;;0.5;0.5;;;;;;;8.14;100;93223.85;;;;
2019/11/04 02:06:19;;;;;;;0.5;0.5;;;;;;;8.14;100;93223.85;;;;
2019/11/04 02:07:21;;;;;;;0.5;0.5;;;;;;;8.14;100;93223.85;;;;
2019/11/04 02:08:22;;;;;;;0.5;0.5;;;;;;;8.14;100;93223.85;;;;
2019/11/04 02:09:23;;;;;;;0.5;0.5;;;;;;;8.14;100;93223.85;;;;
2019/11/04 02:10:24;;;;;;;0.5;0.5;;;;;;;8.14;100;93223.85;;;;
2019/11/04 02:11:26;;;;;;;0.5;0.5;;;;;;;8.14;100;93223.85;;;;
2019/11/04 02:12:27;;;;;;;0.5;0.5;;;;;;;8.14;100;93223.85;;;;
2019/11/04 02:13:28;;;;;;;0.5;0.5;;;;;;;8.14;100;93223.85;;;;
2019/11/04 02:14:29;;;;;;;0.5;0.5;;;;;;;8.14;100;93223.85;;;;
2019/11/04 02:15:30;;;;;;;0.6;0.6;;;;;;;7.92;100;93226.42;;;;
2019/11/04 02:16:32;;;;;;;0.6;0.6;;;;;;;7.92;100;93226.42;;;;
2019/11/04 02:17:33;;;;;;;0.6;0.6;;;;;;;7.92;100;93226.42;;;;
2019/11/04 02:18:34;;;;;;;0.6;0.6;;;;;;;7.92;100;93226.42;;;;
2019/11/04 02:19:35;;;;;;;0.6;0.6;;;;;;;7.92;100;93226.42;;;;
2019/11/04 02:20:36;;;;;;;0.6;0.6;;;;;;;7.92;100;93226.42;;;;
2019/11/04 02:21:38;;;;;;;0.6;0.6;;;;;;;7.92;100;93226.42;;;;
2019/11/04 02:22:39;;;;;;;0.6;0.6;;;;;;;7.92;100;93226.42;;;;
2019/11/04 02:23:40;;;;;;;0.6;0.6;;;;;;;7.92;100;93226.42;;;;
2019/11/04 02:24:41;;;;;;;0.6;0.6;;;;;;;7.92;100;93226.42;;;;
2019/11/04 02:25:42;;;;;;;0.85;0.6;;;;;;;7.95;100;93220.12;;;;
2019/11/04 02:26:44;;;;;;;0.85;0.6;;;;;;;7.95;100;93220.12;;;;
2019/11/04 02:27:45;;;;;;;0.85;0.6;;;;;;;7.95;100;93220.12;;;;
2019/11/04 02:28:46;;;;;;;0.85;0.6;;;;;;;7.95;100;93220.12;;;;
2019/11/04 02:29:48;;;;;;;0.85;0.6;;;;;;;7.95;100;93220.12;;;;
2019/11/04 02:30:49;;;;;;;0.85;0.6;;;;;;;7.95;100;93220.12;;;;
2019/11/04 02:31:50;;;;;;;0.85;0.6;;;;;;;7.95;100;93220.12;;;;
2019/11/04 02:32:52;;;;;;;0.85;0.6;;;;;;;7.95;100;93220.12;;;;
2019/11/04 02:33:53;;;;;;;0.85;0.6;;;;;;;7.95;100;93220.12;;;;
2019/11/04 02:34:54;;;;;;;0.85;0.6;;;;;;;7.95;100;93220.12;;;;
2019/11/04 02:35:55;;;;;;;0.9;0.6;;;;;;;8.15;100;93225.85;;;;
2019/11/04 02:36:56;;;;;;;0.9;0.6;;;;;;;8.15;100;93225.85;;;;
2019/11/04 02:37:57;;;;;;;0.9;0.6;;;;;;;8.15;100;93225.85;;;;
2019/11/04 02:38:59;;;;;;;0.9;0.6;;;;;;;8.15;100;93225.85;;;;
2019/11/04 02:40:00;;;;;;;0.9;0.6;;;;;;;8.15;100;93225.85;;;;
2019/11/04 02:41:01;;;;;;;0.9;0.6;;;;;;;8.15;100;93225.85;;;;
2019/11/04 02:42:02;;;;;;;0.9;0.6;;;;;;;8.15;100;93225.85;;;;
2019/11/04 02:43:03;;;;;;;0.9;0.6;;;;;;;8.15;100;93225.85;;;;
2019/11/04 02:44:04;;;;;;;0.9;0.6;;;;;;;8.15;100;93225.85;;;;
2019/11/04 02:45:06;;;;;;;0.9;0.6;;;;;;;8.15;100;93225.85;;;;
2019/11/04 02:46:08;;;;;;;0.9;0.6;;;;;;;8.15;100;93225.85;;;;
2019/11/04 02:47:09;;;;;;;0.9;0.6;;;;;;;8.15;100;93225.85;;;;
2019/11/04 02:48:10;;;;;;;0.9;0.6;;;;;;;8.15;100;93225.85;;;;
2019/11/04 02:49:11;;;;;;;0.9;0.6;;;;;;;8.15;100;93225.85;;;;
2019/11/04 02:50:12;;;;;;;0.9;0.6;;;;;;;8.15;100;93225.85;;;;
2019/11/04 02:51:13;;;;;;;0.9;0.6;;;;;;;8.15;100;93225.85;;;;
2019/11/04 02:52:15;;;;;;;0.9;0.6;;;;;;;8.15;100;93225.85;;;;
2019/11/04 02:53:16;;;;;;;0.9;0.6;;;;;;;8.15;100;93225.85;;;;
2019/11/04 02:54:17;;;;;;;0.9;0.6;;;;;;;8.15;100;93225.85;;;;
2019/11/04 02:55:18;;;;;;;0.9;0.6;;;;;;;8.15;100;93225.85;;;;
2019/11/04 02:56:20;;;;;;;0.9;0.6;;;;;;;8.15;100;93225.85;;;;
2019/11/04 02:57:21;;;;;;;0.9;0.6;;;;;;;8.15;100;93225.85;;;;
2019/11/04 02:58:23;;;;;;;0.5;0.5;;;;;;;8.49;100;93242.21;;;;
2019/11/04 02:59:24;;;;;;;0.5;0.5;;;;;;;8.49;100;93242.21;;;;
2019/11/04 03:00:25;;;;;;;0.5;0.5;;;;;;;8.49;100;93242.21;;;;
2019/11/04 03:01:26;;;;;;;0.5;0.5;;;;;;;8.49;100;93242.21;;;;
2019/11/04 03:02:27;;;;;;;0.5;0.5;;;;;;;8.49;100;93242.21;;;;
2019/11/04 03:03:28;;;;;;;0.5;0.5;;;;;;;8.49;100;93242.21;;;;
2019/11/04 03:04:30;;;;;;;0.5;0.5;;;;;;;8.49;100;93242.21;;;;
2019/11/04 03:05:31;;;;;;;0.5;0.5;;;;;;;8.49;100;93242.21;;;;
2019/11/04 03:06:32;;;;;;;0.5;0.5;;;;;;;8.49;100;93242.21;;;;
2019/11/04 03:07:33;;;;;;;0.5;0.5;;;;;;;8.49;100;93242.21;;;;
2019/11/04 03:08:34;;;;;;;0.6;0.6;;;;;;;8.52;100;93252.03;;;;
2019/11/04 03:09:35;;;;;;;0.6;0.6;;;;;;;8.52;100;93252.03;;;;
2019/11/04 03:10:37;;;;;;;0.6;0.6;;;;;;;8.52;100;93252.03;;;;
2019/11/04 03:11:42;;;;;;;0.6;0.6;;;;;;;8.52;100;93252.03;;;;
2019/11/04 03:12:43;;;;;;;0.6;0.6;;;;;;;8.52;100;93252.03;;;;
2019/11/04 03:13:44;;;;;;;0.6;0.6;;;;;;;8.52;100;93252.03;;;;
2019/11/04 03:14:45;;;;;;;0.6;0.6;;;;;;;8.52;100;93252.03;;;;
2019/11/04 03:15:47;;;;;;;0.6;0.6;;;;;;;8.52;100;93252.03;;;;
2019/11/04 03:16:48;;;;;;;0.6;0.6;;;;;;;8.52;100;93252.03;;;;
2019/11/04 03:17:49;;;;;;;0.6;0.6;;;;;;;8.52;100;93252.03;;;;
2019/11/04 03:18:50;;;;;;;0.55;0.55;;;;;;;8.38;100;93248.32;;;;
2019/11/04 03:19:51;;;;;;;0.55;0.55;;;;;;;8.38;100;93248.32;;;;
2019/11/04 03:20:53;;;;;;;0.55;0.55;;;;;;;8.38;100;93248.32;;;;
2019/11/04 03:21:54;;;;;;;0.55;0.55;;;;;;;8.38;100;93248.32;;;;
2019/11/04 03:22:56;;;;;;;0.55;0.55;;;;;;;8.38;100;93248.32;;;;
2019/11/04 03:24:04;;;;;;;0.55;0.55;;;;;;;8.38;100;93248.32;;;;
2019/11/04 03:25:12;;;;;;;0.55;0.55;;;;;;;8.38;100;93248.32;;;;
2019/11/04 03:26:33;;;;;;;0.55;0.55;;;;;;;8.38;100;93248.32;;;;
2019/11/04 03:27:35;;;;;;;0.55;0.55;;;;;;;8.38;100;93248.32;;;;
2019/11/04 03:28:36;;;;;;;0.55;0.55;;;;;;;8.38;100;93248.32;;;;
2019/11/04 03:29:37;;;;;;;0.5;0.5;;;;;;;8.26;100;93254.49;;;;
2019/11/04 03:30:38;;;;;;;0.5;0.5;;;;;;;8.26;100;93254.49;;;;
2019/11/04 03:31:39;;;;;;;0.5;0.5;;;;;;;8.26;100;93254.49;;;;
2019/11/04 03:32:40;;;;;;;0.5;0.5;;;;;;;8.26;100;93254.49;;;;
2019/11/04 03:33:42;;;;;;;0.5;0.5;;;;;;;8.26;100;93254.49;;;;
2019/11/04 03:34:43;;;;;;;0.5;0.5;;;;;;;8.26;100;93254.49;;;;
2019/11/04 03:35:44;;;;;;;0.5;0.5;;;;;;;8.26;100;93254.49;;;;
2019/11/04 03:36:45;;;;;;;0.5;0.5;;;;;;;8.26;100;93254.49;;;;
2019/11/04 03:37:46;;;;;;;0.5;0.5;;;;;;;8.26;100;93254.49;;;;
2019/11/04 03:38:48;;;;;;;0.5;0.5;;;;;;;8.26;100;93254.49;;;;
2019/11/04 03:39:49;;;;;;;0.6;0.6;;;;;;;8.08;100;93252.73;;;;
2019/11/04 03:40:50;;;;;;;0.6;0.6;;;;;;;8.08;100;93252.73;;;;
2019/11/04 03:41:57;;;;;;;0.6;0.6;;;;;;;8.08;100;93252.73;;;;
2019/11/04 03:42:58;;;;;;;0.6;0.6;;;;;;;8.08;100;93252.73;;;;
2019/11/04 03:44:02;;;;;;;0.6;0.6;;;;;;;8.08;100;93252.73;;;;
2019/11/04 03:45:03;;;;;;;0.6;0.6;;;;;;;8.08;100;93252.73;;;;
2019/11/04 03:46:05;;;;;;;0.6;0.6;;;;;;;8.08;100;93252.73;;;;
2019/11/04 03:47:06;;;;;;;0.6;0.6;;;;;;;8.08;100;93252.73;;;;
2019/11/04 03:48:07;;;;;;;0.6;0.6;;;;;;;8.08;100;93252.73;;;;
2019/11/04 03:49:10;;;;;;;0.6;0.6;;;;;;;8.08;100;93252.73;;;;
2019/11/04 03:50:11;;;;;;;0.6;0.6;;;;;;;8.08;100;93252.73;;;;
2019/11/04 03:51:12;;;;;;;0.6;0.6;;;;;;;8.03;100;93259.46;;;;
2019/11/04 03:56:25;;;;;;;0.6;0.6;;;;;;;8.03;100;93259.46;;;;
2019/11/04 03:57:49;;;;;;;0.6;0.6;;;;;;;8.03;100;93259.46;;;;
2019/11/04 03:59:30;;;;;;;0.6;0.6;;;;;;;8.03;100;93259.46;;;;
2019/11/04 04:01:57;;;;;;;0.65;0.65;;;;;;;7.95;100;93260.42;;;;
2019/11/04 04:03:21;;;;;;;0.65;0.65;;;;;;;7.95;100;93260.42;;;;
2019/11/04 04:04:35;;;;;;;0.65;0.65;;;;;;;7.95;100;93260.42;;;;
2019/11/04 04:05:39;;;;;;;0.65;0.65;;;;;;;7.95;100;93260.42;;;;
2019/11/04 04:06:40;;;;;;;0.65;0.65;;;;;;;7.95;100;93260.42;;;;
2019/11/04 04:07:42;;;;;;;0.65;0.65;;;;;;;7.95;100;93260.42;;;;
2019/11/04 04:08:45;;;;;;;0.65;0.65;;;;;;;7.95;100;93260.42;;;;
2019/11/04 04:09:47;;;;;;;0.65;0.65;;;;;;;7.95;100;93260.42;;;;
2019/11/04 04:10:52;;;;;;;0.65;0.65;;;;;;;7.95;100;93260.42;;;;
2019/11/04 04:11:54;;;;;;;0.6;0.6;;;;;;;7.99;100;93258;;;;
2019/11/04 04:12:56;;;;;;;0.6;0.6;;;;;;;7.99;100;93258;;;;
2019/11/04 04:13:57;;;;;;;0.6;0.6;;;;;;;7.99;100;93258;;;;
2019/11/04 04:14:58;;;;;;;0.6;0.6;;;;;;;7.99;100;93258;;;;
2019/11/04 04:15:59;;;;;;;0.6;0.6;;;;;;;7.99;100;93258;;;;
2019/11/04 04:17:00;;;;;;;0.6;0.6;;;;;;;7.99;100;93258;;;;
2019/11/04 04:18:02;;;;;;;0.6;0.6;;;;;;;7.99;100;93258;;;;
2019/11/04 04:19:03;;;;;;;0.6;0.6;;;;;;;7.99;100;93258;;;;
2019/11/04 04:20:04;;;;;;;0.6;0.6;;;;;;;7.99;100;93258;;;;
2019/11/04 04:21:07;;;;;;;0.6;0.6;;;;;;;7.99;100;93258;;;;
2019/11/04 04:22:08;;;;;;;0.6;0.6;;;;;;;7.99;100;93258;;;;
2019/11/04 04:23:10;;;;;;;0.6;0.6;;;;;;;7.97;100;93246.15;;;;
2019/11/04 04:24:11;;;;;;;0.6;0.6;;;;;;;7.97;100;93246.15;;;;
2019/11/04 04:25:12;;;;;;;0.6;0.6;;;;;;;7.97;100;93246.15;;;;
2019/11/04 04:26:15;;;;;;;0.6;0.6;;;;;;;7.97;100;93246.15;;;;
2019/11/04 04:27:17;;;;;;;0.6;0.6;;;;;;;7.97;100;93246.15;;;;
2019/11/04 04:28:20;;;;;;;0.6;0.6;;;;;;;7.97;100;93246.15;;;;
2019/11/04 04:29:21;;;;;;;0.6;0.6;;;;;;;7.97;100;93246.15;;;;
2019/11/04 04:30:23;;;;;;;0.6;0.6;;;;;;;7.97;100;93246.15;;;;
2019/11/04 04:31:24;;;;;;;0.6;0.6;;;;;;;7.97;100;93246.15;;;;
2019/11/04 04:32:25;;;;;;;0.6;0.6;;;;;;;7.97;100;93246.15;;;;
2019/11/04 04:33:26;;;;;;;0.8;0.6;;;;;;;7.95;100;93227.77;;;;
2019/11/04 04:34:27;;;;;;;0.8;0.6;;;;;;;7.95;100;93227.77;;;;
2019/11/04 04:35:29;;;;;;;0.8;0.6;;;;;;;7.95;100;93227.77;;;;
2019/11/04 04:36:30;;;;;;;0.8;0.6;;;;;;;7.95;100;93227.77;;;;
2019/11/04 04:37:31;;;;;;;0.8;0.6;;;;;;;7.95;100;93227.77;;;;
2019/11/04 04:38:32;;;;;;;0.8;0.6;;;;;;;7.95;100;93227.77;;;;
2019/11/04 04:39:33;;;;;;;0.8;0.6;;;;;;;7.95;100;93227.77;;;;
2019/11/04 04:40:34;;;;;;;0.8;0.6;;;;;;;7.95;100;93227.77;;;;
2019/11/04 04:41:36;;;;;;;0.8;0.6;;;;;;;7.95;100;93227.77;;;;
2019/11/04 04:42:40;;;;;;;0.8;0.6;;;;;;;7.95;100;93227.77;;;;
2019/11/04 04:43:41;;;;;;;0.6;0.6;;;;;;;7.84;100;93227.35;;;;
2019/11/04 04:44:51;;;;;;;0.6;0.6;;;;;;;7.84;100;93227.35;;;;
2019/11/04 04:45:54;;;;;;;0.6;0.6;;;;;;;7.84;100;93227.35;;;;
2019/11/04 04:46:57;;;;;;;0.6;0.6;;;;;;;7.84;100;93227.35;;;;
2019/11/04 04:48:14;;;;;;;0.6;0.6;;;;;;;7.84;100;93227.35;;;;
2019/11/04 04:49:17;;;;;;;0.6;0.6;;;;;;;7.84;100;93227.35;;;;
2019/11/04 04:50:18;;;;;;;0.6;0.6;;;;;;;7.84;100;93227.35;;;;
2019/11/04 04:51:19;;;;;;;0.6;0.6;;;;;;;7.84;100;93227.35;;;;
2019/11/04 04:52:21;;;;;;;0.6;0.6;;;;;;;7.84;100;93227.35;;;;
2019/11/04 04:53:23;;;;;;;0.6;0.6;;;;;;;7.84;100;93227.35;;;;
2019/11/04 04:54:27;;;;;;;0.6;0.6;;;;;;;7.89;100;93224.28;;;;
2019/11/04 04:55:30;;;;;;;0.6;0.6;;;;;;;7.89;100;93224.28;;;;
2019/11/04 04:56:31;;;;;;;0.6;0.6;;;;;;;7.89;100;93224.28;;;;
2019/11/04 04:58:02;;;;;;;0.6;0.6;;;;;;;7.89;100;93224.28;;;;
2019/11/04 04:59:03;;;;;;;0.6;0.6;;;;;;;7.89;100;93224.28;;;;
2019/11/04 05:00:06;;;;;;;0.6;0.6;;;;;;;7.89;100;93224.28;;;;
2019/11/04 05:01:14;;;;;;;0.6;0.6;;;;;;;7.89;100;93224.28;;;;
2019/11/04 05:02:24;;;;;;;0.6;0.6;;;;;;;7.89;100;93224.28;;;;
2019/11/04 05:04:18;;;;;;;0.6;0.6;;;;;;;7.89;100;93224.28;;;;
2019/11/04 05:05:27;;;;;;;0.6;0.6;;;;;;;7.82;100;93213.53;;;;
2019/11/04 05:06:28;;;;;;;0.6;0.6;;;;;;;7.82;100;93213.53;;;;
2019/11/04 05:07:33;;;;;;;0.6;0.6;;;;;;;7.82;100;93213.53;;;;
2019/11/04 05:08:38;;;;;;;0.6;0.6;;;;;;;7.82;100;93213.53;;;;
2019/11/04 05:09:51;;;;;;;0.6;0.6;;;;;;;7.82;100;93213.53;;;;
2019/11/04 05:16:07;;;;;;;2.55;0.7;;;;;;;7.76;100;93223.88;;;;
2019/11/04 05:17:12;;;;;;;2.55;0.7;;;;;;;7.76;100;93223.88;;;;
2019/11/04 05:18:18;;;;;;;2.55;0.7;;;;;;;7.76;100;93223.88;;;;
2019/11/04 05:19:21;;;;;;;2.55;0.7;;;;;;;7.76;100;93223.88;;;;
2019/11/04 05:20:22;;;;;;;2.55;0.7;;;;;;;7.76;100;93223.88;;;;
2019/11/04 05:21:26;;;;;;;2.55;0.7;;;;;;;7.76;100;93223.88;;;;
2019/11/04 05:22:29;;;;;;;2.55;0.7;;;;;;;7.76;100;93223.88;;;;
2019/11/04 05:23:32;;;;;;;2.55;0.7;;;;;;;7.76;100;93223.88;;;;
2019/11/04 05:24:34;;;;;;;2.55;0.7;;;;;;;7.76;100;93223.88;;;;
2019/11/04 05:25:40;;;;;;;2.55;0.7;;;;;;;7.76;100;93223.88;;;;
2019/11/04 05:26:42;;;;;;;1.1;0.8;;;;;;;7.63;100;93228.59;;;;
2019/11/04 05:27:44;;;;;;;1.1;0.8;;;;;;;7.63;100;93228.59;;;;
2019/11/04 05:28:47;;;;;;;1.1;0.8;;;;;;;7.63;100;93228.59;;;;
2019/11/04 05:29:48;;;;;;;1.1;0.8;;;;;;;7.63;100;93228.59;;;;
2019/11/04 05:30:49;;;;;;;1.1;0.8;;;;;;;7.63;100;93228.59;;;;
2019/11/04 05:31:50;;;;;;;1.1;0.8;;;;;;;7.63;100;93228.59;;;;
2019/11/04 05:32:51;;;;;;;1.1;0.8;;;;;;;7.63;100;93228.59;;;;
2019/11/04 05:33:53;;;;;;;1.1;0.8;;;;;;;7.63;100;93228.59;;;;
2019/11/04 05:34:54;;;;;;;1.1;0.8;;;;;;;7.63;100;93228.59;;;;
2019/11/04 05:35:55;;;;;;;1.1;0.8;;;;;;;7.63;100;93228.59;;;;
2019/11/04 05:36:56;;;;;;;0.7;0.7;;;;;;;7.61;100;93233.42;;;;
2019/11/04 05:37:57;;;;;;;0.7;0.7;;;;;;;7.61;100;93233.42;;;;
2019/11/04 05:38:59;;;;;;;0.7;0.7;;;;;;;7.61;100;93233.42;;;;
2019/11/04 05:40:00;;;;;;;0.7;0.7;;;;;;;7.61;100;93233.42;;;;
2019/11/04 05:41:01;;;;;;;0.7;0.7;;;;;;;7.61;100;93233.42;;;;
2019/11/04 05:42:02;;;;;;;0.7;0.7;;;;;;;7.61;100;93233.42;;;;
2019/11/04 05:43:03;;;;;;;0.7;0.7;;;;;;;7.61;100;93233.42;;;;
2019/11/04 05:44:04;;;;;;;0.7;0.7;;;;;;;7.61;100;93233.42;;;;
2019/11/04 05:45:06;;;;;;;0.7;0.7;;;;;;;7.61;100;93233.42;;;;
2019/11/04 05:46:07;;;;;;;0.7;0.7;;;;;;;7.61;100;93233.42;;;;
2019/11/04 05:47:08;;;;;;;0.7;0.7;;;;;;;7.61;100;93233.42;;;;
2019/11/04 05:48:21;;;;;;;0.7;0.7;;;;;;;7.5;100;93241.03;;;;
2019/11/04 05:49:22;;;;;;;0.7;0.7;;;;;;;7.5;100;93241.03;;;;
2019/11/04 05:50:23;;;;;;;0.7;0.7;;;;;;;7.5;100;93241.03;;;;
2019/11/04 05:51:25;;;;;;;0.7;0.7;;;;;;;7.5;100;93241.03;;;;
2019/11/04 05:52:26;;;;;;;0.7;0.7;;;;;;;7.5;100;93241.03;;;;
2019/11/04 05:53:27;;;;;;;0.7;0.7;;;;;;;7.5;100;93241.03;;;;
2019/11/04 05:54:28;;;;;;;0.7;0.7;;;;;;;7.5;100;93241.03;;;;
2019/11/04 05:55:29;;;;;;;0.7;0.7;;;;;;;7.5;100;93241.03;;;;
2019/11/04 05:56:30;;;;;;;0.7;0.7;;;;;;;7.5;100;93241.03;;;;
2019/11/04 05:57:31;;;;;;;0.7;0.7;;;;;;;7.5;100;93241.03;;;;
2019/11/04 05:58:32;;;;;;;0.7;0.7;;;;;;;7.53;100;93227.22;;;;
2019/11/04 05:59:34;;;;;;;0.7;0.7;;;;;;;7.53;100;93227.22;;;;
2019/11/04 06:00:35;;;;;;;0.7;0.7;;;;;;;7.53;100;93227.22;;;;
2019/11/04 06:01:37;;;;;;;0.7;0.7;;;;;;;7.53;100;93227.22;;;;
2019/11/04 06:02:44;;;;;;;0.7;0.7;;;;;;;7.53;100;93227.22;;;;
2019/11/04 06:03:57;;;;;;;0.7;0.7;;;;;;;7.53;100;93227.22;;;;
2019/11/04 06:05:12;;;;;;;0.7;0.7;;;;;;;7.53;100;93227.22;;;;
2019/11/04 06:06:30;;;;;;;0.7;0.7;;;;;;;7.53;100;93227.22;;;;
2019/11/04 06:07:34;;;;;;;0.7;0.7;;;;;;;7.53;100;93227.22;;;;
2019/11/04 06:08:39;;;;;;;0.8;0.7;;;;;;;7.55;100;93237.56;;;;
2019/11/04 06:09:43;;;;;;;0.8;0.7;;;;;;;7.55;100;93237.56;;;;
2019/11/04 06:10:45;;;;;;;0.8;0.7;;;;;;;7.55;100;93237.56;;;;
2019/11/04 06:11:48;;;;;;;0.8;0.7;;;;;;;7.55;100;93237.56;;;;
2019/11/04 06:12:50;;;;;;;0.8;0.7;;;;;;;7.55;100;93237.56;;;;
2019/11/04 06:13:54;;;;;;;0.8;0.7;;;;;;;7.55;100;93237.56;;;;
2019/11/04 06:14:56;;;;;;;0.8;0.7;;;;;;;7.55;100;93237.56;;;;
2019/11/04 06:16:00;;;;;;;0.8;0.7;;;;;;;7.55;100;93237.56;;;;
2019/11/04 06:17:01;;;;;;;0.8;0.7;;;;;;;7.55;100;93237.56;;;;
2019/11/04 06:18:02;;;;;;;0.8;0.7;;;;;;;7.55;100;93237.56;;;;
2019/11/04 06:19:03;;;;;;;0.7;0.7;;;;;;;7.7;100;93238.37;;;;
2019/11/04 06:20:04;;;;;;;0.7;0.7;;;;;;;7.7;100;93238.37;;;;
2019/11/04 06:21:06;;;;;;;0.7;0.7;;;;;;;7.7;100;93238.37;;;;
2019/11/04 06:22:07;;;;;;;0.7;0.7;;;;;;;7.7;100;93238.37;;;;
2019/11/04 06:23:08;;;;;;;0.7;0.7;;;;;;;7.7;100;93238.37;;;;
2019/11/04 06:24:09;;;;;;;0.7;0.7;;;;;;;7.7;100;93238.37;;;;
2019/11/04 06:25:10;;;;;;;0.7;0.7;;;;;;;7.7;100;93238.37;;;;
2019/11/04 06:26:11;;;;;;;0.7;0.7;;;;;;;7.7;100;93238.37;;;;
2019/11/04 06:27:13;;;;;;;0.7;0.7;;;;;;;7.7;100;93238.37;;;;
2019/11/04 06:28:14;;;;;;;0.7;0.7;;;;;;;7.7;100;93238.37;;;;
2019/11/04 06:29:15;;;;;;;0.7;0.7;;;;;;;7.7;100;93238.37;;;;
2019/11/04 06:30:16;;;;;;;2.2;0.95;;;;;;;7.74;100;93242.27;;;;
2019/11/04 06:31:17;;;;;;;2.2;0.95;;;;;;;7.74;100;93242.27;;;;
2019/11/04 06:32:18;;;;;;;2.2;0.95;;;;;;;7.74;100;93242.27;;;;
2019/11/04 06:33:19;;;;;;;2.2;0.95;;;;;;;7.74;100;93242.27;;;;
2019/11/04 06:34:21;;;;;;;2.2;0.95;;;;;;;7.74;100;93242.27;;;;
2019/11/04 06:35:22;;;;;;;2.2;0.95;;;;;;;7.74;100;93242.27;;;;
2019/11/04 06:36:24;;;;;;;2.2;0.95;;;;;;;7.74;100;93242.27;;;;
2019/11/04 06:37:25;;;;;;;2.2;0.95;;;;;;;7.74;100;93242.27;;;;
2019/11/04 06:38:26;;;;;;;2.2;0.95;;;;;;;7.74;100;93242.27;;;;
2019/11/04 06:39:27;;;;;;;2.2;0.95;;;;;;;7.74;100;93242.27;;;;
2019/11/04 06:40:28;;;;;;;0.7;0.7;;;;;;;7.88;99.91895;93246.42;;;;
2019/11/04 06:41:29;;;;;;;0.7;0.7;;;;;;;7.88;99.91895;93246.42;;;;
2019/11/04 06:42:30;;;;;;;0.7;0.7;;;;;;;7.88;99.91895;93246.42;;;;
2019/11/04 06:43:31;;;;;;;0.7;0.7;;;;;;;7.88;99.91895;93246.42;;;;
2019/11/04 06:44:33;;;;;;;0.7;0.7;;;;;;;7.88;99.91895;93246.42;;;;
2019/11/04 06:45:34;;;;;;;0.7;0.7;;;;;;;7.88;99.91895;93246.42;;;;
2019/11/04 06:46:35;;;;;;;0.7;0.7;;;;;;;7.88;99.91895;93246.42;;;;
2019/11/04 06:47:36;;;;;;;0.7;0.7;;;;;;;7.88;99.91895;93246.42;;;;
2019/11/04 06:48:37;;;;;;;0.7;0.7;;;;;;;7.88;99.91895;93246.42;;;;
2019/11/04 06:49:38;;;;;;;0.7;0.7;;;;;;;7.88;99.91895;93246.42;;;;
2019/11/04 06:50:39;;;;;;;0.7;0.7;;;;;;;7.88;99.91895;93246.42;;;;